JBU224 KLAX-KJFK
Flight info
| Callsign | JBU224 |
|---|---|
| Flight time | N/A |
| Altitude | 33000 |
| Route | DOTSS2 CLEEE EED J236 TBC KD39Q ALS/N0450F350 GOSIP RYLIE IBQUP HURDO STJ KK63I FATOX KG66O WEEVR WWSHR Q29 JHW Q476 WLKES |
| Aircraft | A321/M-SDE3FGHIRWY/LB1 |
Departure
| Time | N/A |
|---|---|
| Airport | Los Angeles International Airport (KLAX) |
Arrival
| Time | 2026-05-05 13:27 |
|---|---|
| Airport | John F. Kennedy International Airport (KJFK) |
| Time | Latitude | Longitude | Altitude | Speed | Heading |
|---|---|---|---|---|---|
| 2026-05-05 10:46 | 38.40053 | -101.61032 | 34870 ft | 557 kts | 65° |
| 2026-05-05 10:46 | 38.42827 | -101.51803 | 34876 ft | 557 kts | 66° |
| 2026-05-05 10:47 | 38.45482 | -101.42535 | 34835 ft | 556 kts | 67° |
| 2026-05-05 10:47 | 38.48110 | -101.33258 | 34854 ft | 555 kts | 67° |
| 2026-05-05 10:48 | 38.50773 | -101.24004 | 34881 ft | 555 kts | 66° |
| 2026-05-05 10:48 | 38.53430 | -101.14760 | 34906 ft | 555 kts | 67° |
| 2026-05-05 10:49 | 38.56077 | -101.05487 | 34928 ft | 555 kts | 67° |
| 2026-05-05 10:49 | 38.58722 | -100.96204 | 34947 ft | 556 kts | 67° |
| 2026-05-05 10:50 | 38.61362 | -100.86922 | 34948 ft | 556 kts | 67° |
| 2026-05-05 10:50 | 38.63977 | -100.77672 | 34936 ft | 556 kts | 67° |
| 2026-05-05 10:51 | 38.66596 | -100.68348 | 34924 ft | 557 kts | 67° |
| 2026-05-05 10:51 | 38.69207 | -100.59027 | 34905 ft | 557 kts | 67° |
| 2026-05-05 10:52 | 38.71823 | -100.49682 | 34898 ft | 557 kts | 67° |
| 2026-05-05 10:52 | 38.74440 | -100.40326 | 34894 ft | 558 kts | 67° |
| 2026-05-05 10:53 | 38.77041 | -100.30962 | 34903 ft | 559 kts | 67° |
| 2026-05-05 10:53 | 38.79632 | -100.21565 | 34911 ft | 559 kts | 67° |
| 2026-05-05 10:54 | 38.82230 | -100.12164 | 34915 ft | 559 kts | 67° |
| 2026-05-05 10:54 | 38.84813 | -100.02765 | 34911 ft | 559 kts | 67° |
| 2026-05-05 10:55 | 38.87384 | -99.93334 | 34905 ft | 560 kts | 67° |
| 2026-05-05 10:55 | 38.89953 | -99.83898 | 34906 ft | 560 kts | 67° |
| 2026-05-05 10:56 | 38.92505 | -99.74538 | 34906 ft | 560 kts | 67° |
| 2026-05-05 10:56 | 38.95060 | -99.65084 | 34914 ft | 560 kts | 68° |
| 2026-05-05 10:57 | 38.97600 | -99.55638 | 34926 ft | 560 kts | 68° |
| 2026-05-05 10:57 | 39.00077 | -99.46135 | 34930 ft | 561 kts | 69° |
| 2026-05-05 10:58 | 39.02472 | -99.36580 | 34933 ft | 561 kts | 69° |
| 2026-05-05 10:58 | 39.04866 | -99.27010 | 34930 ft | 562 kts | 69° |
| 2026-05-05 10:59 | 39.07276 | -99.17433 | 34914 ft | 562 kts | 69° |
| 2026-05-05 10:59 | 39.09690 | -99.07864 | 34902 ft | 563 kts | 68° |
| 2026-05-05 11:00 | 39.12082 | -98.98326 | 34897 ft | 563 kts | 69° |
| 2026-05-05 11:00 | 39.14489 | -98.88661 | 34892 ft | 564 kts | 69° |
| 2026-05-05 11:01 | 39.16887 | -98.79035 | 34884 ft | 564 kts | 69° |
| 2026-05-05 11:01 | 39.19261 | -98.69463 | 34880 ft | 564 kts | 69° |
| 2026-05-05 11:02 | 39.21648 | -98.59764 | 34877 ft | 564 kts | 69° |
| 2026-05-05 11:02 | 39.24015 | -98.50107 | 34879 ft | 564 kts | 69° |
| 2026-05-05 11:03 | 39.26366 | -98.40514 | 34860 ft | 564 kts | 69° |
| 2026-05-05 11:03 | 39.28725 | -98.30796 | 34855 ft | 564 kts | 69° |
| 2026-05-05 11:04 | 39.31050 | -98.21183 | 34862 ft | 564 kts | 69° |
| 2026-05-05 11:04 | 39.33388 | -98.11499 | 34856 ft | 565 kts | 69° |
| 2026-05-05 11:05 | 39.35716 | -98.01822 | 34863 ft | 565 kts | 69° |
| 2026-05-05 11:05 | 39.38044 | -97.92118 | 34908 ft | 565 kts | 69° |
| 2026-05-05 11:06 | 39.40354 | -97.82417 | 34923 ft | 565 kts | 69° |
| 2026-05-05 11:06 | 39.42663 | -97.72691 | 34949 ft | 566 kts | 69° |
| 2026-05-05 11:07 | 39.44965 | -97.62955 | 34959 ft | 566 kts | 69° |
| 2026-05-05 11:07 | 39.47252 | -97.53225 | 34952 ft | 566 kts | 69° |
| 2026-05-05 11:08 | 39.49522 | -97.43535 | 34936 ft | 566 kts | 69° |
| 2026-05-05 11:08 | 39.51809 | -97.33772 | 34918 ft | 566 kts | 69° |
| 2026-05-05 11:09 | 39.54100 | -97.23953 | 34902 ft | 566 kts | 69° |
| 2026-05-05 11:09 | 39.56359 | -97.14241 | 34892 ft | 566 kts | 69° |
| 2026-05-05 11:10 | 39.58614 | -97.04448 | 34898 ft | 567 kts | 69° |
| 2026-05-05 11:10 | 39.60858 | -96.94660 | 34900 ft | 567 kts | 69° |
| 2026-05-05 11:11 | 39.63099 | -96.84844 | 34913 ft | 568 kts | 70° |
| 2026-05-05 11:11 | 39.65088 | -96.74900 | 34920 ft | 570 kts | 73° |
| 2026-05-05 11:12 | 39.66788 | -96.64845 | 34924 ft | 572 kts | 75° |
| 2026-05-05 11:12 | 39.68457 | -96.54748 | 34925 ft | 572 kts | 73° |
| 2026-05-05 11:13 | 39.70216 | -96.44745 | 34923 ft | 572 kts | 73° |
| 2026-05-05 11:13 | 39.72028 | -96.34696 | 34922 ft | 572 kts | 73° |
| 2026-05-05 11:14 | 39.73817 | -96.24607 | 34918 ft | 573 kts | 73° |
| 2026-05-05 11:14 | 39.75574 | -96.14494 | 34913 ft | 574 kts | 73° |
| 2026-05-05 11:15 | 39.77318 | -96.04385 | 34919 ft | 574 kts | 73° |
| 2026-05-05 11:15 | 39.79071 | -95.94251 | 34919 ft | 574 kts | 73° |
| 2026-05-05 11:16 | 39.80805 | -95.84102 | 34924 ft | 575 kts | 73° |
| 2026-05-05 11:16 | 39.82522 | -95.73960 | 34938 ft | 575 kts | 73° |
| 2026-05-05 11:17 | 39.84245 | -95.63799 | 34941 ft | 575 kts | 73° |
| 2026-05-05 11:17 | 39.85951 | -95.53703 | 34943 ft | 575 kts | 73° |
| 2026-05-05 11:18 | 39.87657 | -95.43553 | 34938 ft | 575 kts | 73° |
| 2026-05-05 11:18 | 39.89354 | -95.33382 | 34930 ft | 574 kts | 73° |
| 2026-05-05 11:19 | 39.91032 | -95.23224 | 34939 ft | 574 kts | 73° |
| 2026-05-05 11:19 | 39.92703 | -95.13048 | 34942 ft | 574 kts | 73° |
| 2026-05-05 11:20 | 39.94369 | -95.02874 | 34939 ft | 574 kts | 73° |
| 2026-05-05 11:20 | 39.96031 | -94.92703 | 34937 ft | 573 kts | 73° |
| 2026-05-05 11:21 | 39.97849 | -94.82619 | 34940 ft | 571 kts | 70° |
| 2026-05-05 11:21 | 39.99896 | -94.72697 | 34938 ft | 570 kts | 70° |
| 2026-05-05 11:22 | 40.01957 | -94.62732 | 34938 ft | 570 kts | 70° |
| 2026-05-05 11:22 | 40.03928 | -94.52714 | 34940 ft | 570 kts | 71° |
| 2026-05-05 11:23 | 40.05845 | -94.42679 | 34939 ft | 569 kts | 71° |
| 2026-05-05 11:23 | 40.07758 | -94.32662 | 34938 ft | 569 kts | 71° |
| 2026-05-05 11:24 | 40.09682 | -94.22644 | 34936 ft | 568 kts | 71° |
| 2026-05-05 11:24 | 40.11604 | -94.12653 | 34944 ft | 568 kts | 71° |
| 2026-05-05 11:25 | 40.13516 | -94.02646 | 34943 ft | 567 kts | 71° |
| 2026-05-05 11:25 | 40.15416 | -93.92641 | 34946 ft | 566 kts | 72° |
| 2026-05-05 11:26 | 40.17293 | -93.82658 | 34943 ft | 566 kts | 72° |
| 2026-05-05 11:26 | 40.19140 | -93.72734 | 34948 ft | 564 kts | 72° |
| 2026-05-05 11:27 | 40.20994 | -93.62788 | 34941 ft | 563 kts | 72° |
| 2026-05-05 11:27 | 40.22843 | -93.52847 | 34939 ft | 562 kts | 72° |
| 2026-05-05 11:28 | 40.24674 | -93.42913 | 34937 ft | 561 kts | 72° |
| 2026-05-05 11:28 | 40.26489 | -93.33003 | 34934 ft | 560 kts | 72° |
| 2026-05-05 11:29 | 40.28300 | -93.23084 | 34937 ft | 559 kts | 72° |
| 2026-05-05 11:29 | 40.30102 | -93.13173 | 34938 ft | 559 kts | 72° |
| 2026-05-05 11:30 | 40.31896 | -93.03271 | 34937 ft | 558 kts | 72° |
| 2026-05-05 11:30 | 40.33676 | -92.93393 | 34935 ft | 557 kts | 73° |
| 2026-05-05 11:31 | 40.35444 | -92.83502 | 34938 ft | 557 kts | 73° |
| 2026-05-05 11:31 | 40.37199 | -92.73614 | 34946 ft | 556 kts | 73° |
| 2026-05-05 11:32 | 40.38943 | -92.63748 | 34947 ft | 556 kts | 73° |
| 2026-05-05 11:32 | 40.40678 | -92.53873 | 34949 ft | 555 kts | 73° |
| 2026-05-05 11:33 | 40.42409 | -92.44026 | 34933 ft | 554 kts | 73° |
| 2026-05-05 11:33 | 40.44112 | -92.34231 | 34928 ft | 554 kts | 74° |
| 2026-05-05 11:34 | 40.45812 | -92.24371 | 34929 ft | 553 kts | 74° |
| 2026-05-05 11:34 | 40.47506 | -92.14534 | 34927 ft | 553 kts | 74° |
| 2026-05-05 11:35 | 40.49198 | -92.04686 | 34930 ft | 552 kts | 74° |
| 2026-05-05 11:35 | 40.50447 | -91.94716 | 34924 ft | 554 kts | 82° |
| 2026-05-05 11:36 | 40.51274 | -91.84663 | 34931 ft | 554 kts | 82° |
| 2026-05-05 11:36 | 40.52100 | -91.74600 | 34945 ft | 553 kts | 82° |
| 2026-05-05 11:37 | 40.52780 | -91.66249 | 34955 ft | 553 kts | 82° |
| 2026-05-05 11:37 | 40.53588 | -91.56193 | 34966 ft | 553 kts | 82° |
| 2026-05-05 11:38 | 40.54384 | -91.46157 | 34975 ft | 552 kts | 83° |
| 2026-05-05 11:38 | 40.55168 | -91.36104 | 34971 ft | 552 kts | 83° |
| 2026-05-05 11:39 | 40.55951 | -91.26057 | 34980 ft | 552 kts | 83° |
| 2026-05-05 11:39 | 40.56722 | -91.16028 | 34967 ft | 552 kts | 83° |
| 2026-05-05 11:40 | 40.57483 | -91.05983 | 34936 ft | 552 kts | 83° |
| 2026-05-05 11:40 | 40.58235 | -90.95937 | 34932 ft | 551 kts | 83° |
| 2026-05-05 11:41 | 40.58981 | -90.85910 | 34973 ft | 551 kts | 83° |
| 2026-05-05 11:41 | 40.59722 | -90.75868 | 34990 ft | 551 kts | 83° |
| 2026-05-05 11:42 | 40.60446 | -90.65831 | 34995 ft | 550 kts | 83° |
| 2026-05-05 11:42 | 40.61158 | -90.55818 | 34983 ft | 550 kts | 84° |
| 2026-05-05 11:43 | 40.61865 | -90.45794 | 34969 ft | 550 kts | 84° |
| 2026-05-05 11:43 | 40.62562 | -90.35841 | 34944 ft | 549 kts | 84° |
| 2026-05-05 11:44 | 40.63254 | -90.25772 | 34916 ft | 549 kts | 84° |
| 2026-05-05 11:44 | 40.63930 | -90.15821 | 34904 ft | 549 kts | 84° |
| 2026-05-05 11:45 | 40.64607 | -90.05811 | 34896 ft | 548 kts | 84° |
| 2026-05-05 11:45 | 40.65273 | -89.95825 | 34907 ft | 548 kts | 84° |
| 2026-05-05 11:46 | 40.65925 | -89.85824 | 34893 ft | 548 kts | 84° |
| 2026-05-05 11:46 | 40.66570 | -89.75822 | 34894 ft | 548 kts | 85° |
| 2026-05-05 11:47 | 40.67210 | -89.65834 | 34900 ft | 548 kts | 85° |
| 2026-05-05 11:47 | 40.67836 | -89.55830 | 34895 ft | 548 kts | 85° |
| 2026-05-05 11:48 | 40.68754 | -89.40831 | 34890 ft | 547 kts | 85° |
| 2026-05-05 11:48 | 40.69359 | -89.30827 | 34882 ft | 547 kts | 85° |
| 2026-05-05 11:49 | 40.69958 | -89.20841 | 34871 ft | 547 kts | 85° |
| 2026-05-05 11:49 | 40.70547 | -89.10840 | 34879 ft | 547 kts | 85° |
| 2026-05-05 11:50 | 40.71128 | -89.00836 | 34882 ft | 547 kts | 85° |
| 2026-05-05 11:50 | 40.71697 | -88.90912 | 34874 ft | 547 kts | 85° |
| 2026-05-05 11:51 | 40.72260 | -88.80907 | 34889 ft | 547 kts | 86° |
| 2026-05-05 11:51 | 40.72814 | -88.70838 | 34882 ft | 547 kts | 86° |
| 2026-05-05 11:52 | 40.73350 | -88.60919 | 34884 ft | 547 kts | 86° |
| 2026-05-05 11:52 | 40.73881 | -88.50915 | 34883 ft | 547 kts | 86° |
| 2026-05-05 11:53 | 40.74409 | -88.40927 | 34874 ft | 547 kts | 86° |
| 2026-05-05 11:53 | 40.74934 | -88.30919 | 34860 ft | 547 kts | 86° |
| 2026-05-05 11:54 | 40.75447 | -88.20907 | 34842 ft | 547 kts | 86° |
| 2026-05-05 11:54 | 40.75952 | -88.10907 | 34844 ft | 547 kts | 86° |
| 2026-05-05 11:55 | 40.76446 | -88.00882 | 34843 ft | 548 kts | 86° |
| 2026-05-05 11:55 | 40.76925 | -87.90848 | 34840 ft | 548 kts | 86° |
| 2026-05-05 11:56 | 40.77398 | -87.80821 | 34839 ft | 548 kts | 86° |
| 2026-05-05 11:56 | 40.77872 | -87.70770 | 34840 ft | 549 kts | 86° |
| 2026-05-05 11:57 | 40.78336 | -87.60710 | 34837 ft | 549 kts | 86° |
| 2026-05-05 11:57 | 40.78784 | -87.50657 | 34832 ft | 550 kts | 87° |
| 2026-05-05 11:58 | 40.79226 | -87.40578 | 34834 ft | 550 kts | 87° |
| 2026-05-05 11:58 | 40.79659 | -87.30489 | 34833 ft | 551 kts | 87° |
| 2026-05-05 11:59 | 40.80143 | -87.20417 | 34835 ft | 550 kts | 82° |
| 2026-05-05 11:59 | 40.81673 | -87.10541 | 34839 ft | 549 kts | 75° |
| 2026-05-05 12:00 | 40.83358 | -87.00770 | 34840 ft | 549 kts | 75° |
| 2026-05-05 12:00 | 40.85034 | -86.90865 | 34834 ft | 550 kts | 75° |
| 2026-05-05 12:01 | 40.86684 | -86.80995 | 34834 ft | 550 kts | 75° |
| 2026-05-05 12:01 | 40.88325 | -86.71186 | 34834 ft | 550 kts | 75° |
| 2026-05-05 12:02 | 40.89977 | -86.61331 | 34835 ft | 550 kts | 75° |
| 2026-05-05 12:02 | 40.91624 | -86.51462 | 34837 ft | 549 kts | 75° |
| 2026-05-05 12:03 | 40.93252 | -86.41593 | 34835 ft | 549 kts | 76° |
| 2026-05-05 12:03 | 40.94860 | -86.31741 | 34829 ft | 548 kts | 76° |
| 2026-05-05 12:04 | 40.96459 | -86.21876 | 34826 ft | 548 kts | 76° |
| 2026-05-05 12:04 | 40.98057 | -86.12016 | 34828 ft | 547 kts | 76° |
| 2026-05-05 12:05 | 40.99648 | -86.02179 | 34824 ft | 547 kts | 76° |
| 2026-05-05 12:05 | 41.01135 | -85.92301 | 34823 ft | 547 kts | 78° |
| 2026-05-05 12:06 | 41.02402 | -85.82388 | 34824 ft | 546 kts | 79° |
| 2026-05-05 12:06 | 41.03625 | -85.72461 | 34822 ft | 545 kts | 79° |
| 2026-05-05 12:07 | 41.04878 | -85.62623 | 34823 ft | 544 kts | 78° |
| 2026-05-05 12:07 | 41.06164 | -85.52760 | 34824 ft | 543 kts | 78° |
| 2026-05-05 12:08 | 41.07446 | -85.42893 | 34827 ft | 543 kts | 78° |
| 2026-05-05 12:08 | 41.08708 | -85.33039 | 34840 ft | 541 kts | 78° |
| 2026-05-05 12:09 | 41.09951 | -85.23215 | 34851 ft | 540 kts | 78° |
| 2026-05-05 12:09 | 41.11175 | -85.13387 | 34854 ft | 539 kts | 78° |
| 2026-05-05 12:10 | 41.12392 | -85.03576 | 34851 ft | 538 kts | 78° |
| 2026-05-05 12:10 | 41.13607 | -84.93799 | 34837 ft | 537 kts | 78° |
| 2026-05-05 12:11 | 41.14816 | -84.84021 | 34808 ft | 536 kts | 79° |
| 2026-05-05 12:11 | 41.16010 | -84.74257 | 34800 ft | 535 kts | 79° |
| 2026-05-05 12:12 | 41.17186 | -84.64521 | 34809 ft | 534 kts | 79° |
| 2026-05-05 12:12 | 41.18351 | -84.54778 | 34817 ft | 534 kts | 79° |
| 2026-05-05 12:13 | 41.19503 | -84.45112 | 34825 ft | 533 kts | 79° |
| 2026-05-05 12:13 | 41.20667 | -84.35345 | 34821 ft | 532 kts | 79° |
| 2026-05-05 12:14 | 41.21809 | -84.25636 | 34816 ft | 531 kts | 79° |
| 2026-05-05 12:14 | 41.22795 | -84.15975 | 34798 ft | 531 kts | 83° |
| 2026-05-05 12:15 | 41.23393 | -84.06211 | 34812 ft | 531 kts | 85° |
| 2026-05-05 12:15 | 41.23873 | -83.96432 | 34808 ft | 530 kts | 85° |
| 2026-05-05 12:16 | 41.24434 | -83.86693 | 34799 ft | 529 kts | 84° |
| 2026-05-05 12:16 | 41.25067 | -83.76963 | 34782 ft | 528 kts | 84° |
| 2026-05-05 12:17 | 41.25682 | -83.67247 | 34784 ft | 527 kts | 84° |
| 2026-05-05 12:17 | 41.26265 | -83.57561 | 34786 ft | 526 kts | 84° |
| 2026-05-05 12:18 | 41.26827 | -83.47872 | 34780 ft | 525 kts | 84° |
| 2026-05-05 12:18 | 41.27379 | -83.38264 | 34788 ft | 524 kts | 84° |
| 2026-05-05 12:19 | 41.27933 | -83.28561 | 34785 ft | 523 kts | 85° |
| 2026-05-05 12:19 | 41.28471 | -83.18987 | 34781 ft | 522 kts | 85° |
| 2026-05-05 12:20 | 41.29002 | -83.09362 | 34779 ft | 521 kts | 85° |
| 2026-05-05 12:20 | 41.29528 | -82.99767 | 34791 ft | 521 kts | 85° |
| 2026-05-05 12:21 | 41.30049 | -82.90167 | 34788 ft | 520 kts | 85° |
| 2026-05-05 12:21 | 41.30553 | -82.80577 | 34787 ft | 519 kts | 85° |
| 2026-05-05 12:22 | 41.31052 | -82.71013 | 34784 ft | 519 kts | 85° |
| 2026-05-05 12:22 | 41.31547 | -82.61441 | 34789 ft | 518 kts | 85° |
| 2026-05-05 12:23 | 41.32036 | -82.51874 | 34797 ft | 518 kts | 86° |
| 2026-05-05 12:23 | 41.32514 | -82.42324 | 34798 ft | 518 kts | 86° |
| 2026-05-05 12:24 | 41.32982 | -82.32763 | 34806 ft | 517 kts | 86° |
| 2026-05-05 12:24 | 41.33440 | -82.23205 | 34805 ft | 517 kts | 86° |
| 2026-05-05 12:25 | 41.33881 | -82.13669 | 34807 ft | 517 kts | 86° |
| 2026-05-05 12:25 | 41.34850 | -82.04224 | 34806 ft | 514 kts | 72° |
| 2026-05-05 12:26 | 41.36940 | -81.96865 | 34790 ft | 511 kts | 64° |
| 2026-05-05 12:26 | 41.39746 | -81.88167 | 34793 ft | 511 kts | 64° |
| 2026-05-05 12:27 | 41.42962 | -81.78041 | 34794 ft | 510 kts | 65° |
| 2026-05-05 12:27 | 41.45718 | -81.69320 | 34785 ft | 510 kts | 65° |
| 2026-05-05 12:28 | 41.48025 | -81.62029 | 34787 ft | 509 kts | 65° |
| 2026-05-05 12:28 | 41.50776 | -81.53339 | 34803 ft | 509 kts | 65° |
| 2026-05-05 12:29 | 41.53497 | -81.44691 | 34786 ft | 508 kts | 65° |
| 2026-05-05 12:29 | 41.56230 | -81.35988 | 34804 ft | 508 kts | 65° |
| 2026-05-05 12:30 | 41.58951 | -81.27301 | 34791 ft | 507 kts | 65° |
| 2026-05-05 12:30 | 41.61660 | -81.18592 | 34776 ft | 507 kts | 66° |
| 2026-05-05 12:31 | 41.64361 | -81.09882 | 34785 ft | 507 kts | 66° |
| 2026-05-05 12:31 | 41.67057 | -81.01188 | 34792 ft | 507 kts | 66° |
| 2026-05-05 12:32 | 41.69752 | -80.92475 | 34784 ft | 507 kts | 66° |
| 2026-05-05 12:32 | 41.72436 | -80.83750 | 34801 ft | 507 kts | 66° |
| 2026-05-05 12:33 | 41.75112 | -80.75033 | 34796 ft | 507 kts | 66° |
| 2026-05-05 12:33 | 41.77788 | -80.66291 | 34795 ft | 507 kts | 66° |
| 2026-05-05 12:34 | 41.80448 | -80.57538 | 34799 ft | 507 kts | 67° |
| 2026-05-05 12:34 | 41.82935 | -80.48704 | 34782 ft | 507 kts | 69° |
| 2026-05-05 12:35 | 41.85265 | -80.39839 | 34779 ft | 507 kts | 70° |
| 2026-05-05 12:35 | 41.87610 | -80.30931 | 34763 ft | 507 kts | 69° |
| 2026-05-05 12:36 | 41.89996 | -80.22029 | 34760 ft | 506 kts | 69° |
| 2026-05-05 12:36 | 41.92398 | -80.13137 | 34768 ft | 506 kts | 69° |
| 2026-05-05 12:37 | 41.94780 | -80.04253 | 34761 ft | 506 kts | 69° |
| 2026-05-05 12:37 | 41.97137 | -79.95345 | 34769 ft | 506 kts | 69° |
| 2026-05-05 12:38 | 41.99491 | -79.86437 | 34773 ft | 505 kts | 69° |
| 2026-05-05 12:38 | 42.01841 | -79.77548 | 34760 ft | 505 kts | 69° |
| 2026-05-05 12:39 | 42.04185 | -79.68646 | 34776 ft | 504 kts | 69° |
| 2026-05-05 12:39 | 42.06525 | -79.59745 | 34783 ft | 504 kts | 69° |
| 2026-05-05 12:40 | 42.08844 | -79.50856 | 34795 ft | 504 kts | 69° |
| 2026-05-05 12:40 | 42.11161 | -79.41953 | 34809 ft | 503 kts | 69° |
| 2026-05-05 12:41 | 42.13477 | -79.33055 | 34817 ft | 503 kts | 69° |
| 2026-05-05 12:41 | 42.15767 | -79.24165 | 34813 ft | 502 kts | 69° |
| 2026-05-05 12:42 | 42.17427 | -79.15100 | 34809 ft | 502 kts | 85° |
| 2026-05-05 12:42 | 42.17073 | -79.05759 | 34800 ft | 498 kts | 104° |
| 2026-05-05 12:43 | 42.15039 | -78.96845 | 34778 ft | 494 kts | 111° |
| 2026-05-05 12:43 | 42.12858 | -78.88115 | 34767 ft | 495 kts | 111° |
| 2026-05-05 12:44 | 42.10655 | -78.79332 | 34780 ft | 495 kts | 111° |
| 2026-05-05 12:44 | 42.08451 | -78.70573 | 34789 ft | 494 kts | 111° |
| 2026-05-05 12:45 | 42.06231 | -78.61814 | 34789 ft | 494 kts | 111° |
| 2026-05-05 12:45 | 42.04006 | -78.53068 | 34796 ft | 494 kts | 111° |
| 2026-05-05 12:46 | 42.01782 | -78.44351 | 34799 ft | 493 kts | 111° |
| 2026-05-05 12:46 | 41.99547 | -78.35640 | 34799 ft | 493 kts | 111° |
| 2026-05-05 12:47 | 41.97312 | -78.26934 | 34819 ft | 492 kts | 111° |
| 2026-05-05 12:47 | 41.95074 | -78.18243 | 34826 ft | 491 kts | 111° |
| 2026-05-05 12:48 | 41.92835 | -78.09584 | 34830 ft | 491 kts | 111° |
| 2026-05-05 12:48 | 41.90584 | -78.00928 | 34831 ft | 491 kts | 111° |
| 2026-05-05 12:49 | 41.88329 | -77.92285 | 34829 ft | 490 kts | 111° |
| 2026-05-05 12:49 | 41.86076 | -77.83668 | 34828 ft | 490 kts | 111° |
| 2026-05-05 12:50 | 41.83837 | -77.75103 | 34829 ft | 489 kts | 111° |
| 2026-05-05 12:50 | 41.81573 | -77.66502 | 34828 ft | 489 kts | 111° |
| 2026-05-05 12:51 | 41.79305 | -77.57936 | 34830 ft | 488 kts | 111° |
| 2026-05-05 12:51 | 41.77031 | -77.49390 | 34834 ft | 487 kts | 111° |
| 2026-05-05 12:52 | 41.74759 | -77.40850 | 34837 ft | 486 kts | 111° |
| 2026-05-05 12:52 | 41.72490 | -77.32349 | 34834 ft | 485 kts | 111° |
| 2026-05-05 12:53 | 41.70210 | -77.23859 | 34838 ft | 484 kts | 111° |
| 2026-05-05 12:53 | 41.67930 | -77.15388 | 34840 ft | 483 kts | 111° |
| 2026-05-05 12:54 | 41.64517 | -77.02722 | 34843 ft | 482 kts | 111° |
| 2026-05-05 12:55 | 41.62233 | -76.94317 | 34844 ft | 481 kts | 111° |
| 2026-05-05 12:55 | 41.59952 | -76.85911 | 34851 ft | 481 kts | 111° |
| 2026-05-05 12:56 | 41.57668 | -76.77525 | 34856 ft | 480 kts | 111° |
| 2026-05-05 12:56 | 41.55376 | -76.69177 | 34861 ft | 479 kts | 111° |
| 2026-05-05 12:57 | 41.53095 | -76.60888 | 34862 ft | 478 kts | 111° |
| 2026-05-05 12:57 | 41.50800 | -76.52560 | 34863 ft | 477 kts | 111° |
| 2026-05-05 12:58 | 41.48500 | -76.44271 | 34867 ft | 477 kts | 112° |
| 2026-05-05 12:58 | 41.46143 | -76.36016 | 34870 ft | 475 kts | 112° |
| 2026-05-05 12:59 | 41.43712 | -76.27824 | 34872 ft | 474 kts | 113° |
| 2026-05-05 12:59 | 41.41282 | -76.19683 | 34871 ft | 473 kts | 113° |
| 2026-05-05 13:00 | 41.37669 | -76.07462 | 34900 ft | 472 kts | 113° |
| 2026-05-05 13:01 | 41.32827 | -75.91215 | 34911 ft | 471 kts | 113° |
| 2026-05-05 13:01 | 41.30411 | -75.83126 | 34932 ft | 471 kts | 113° |
| 2026-05-05 13:02 | 41.27987 | -75.75042 | 34934 ft | 470 kts | 113° |
| 2026-05-05 13:02 | 41.25558 | -75.66977 | 34929 ft | 469 kts | 113° |
| 2026-05-05 13:03 | 41.23134 | -75.58937 | 34925 ft | 469 kts | 114° |
| 2026-05-05 13:03 | 41.20702 | -75.50919 | 34957 ft | 468 kts | 114° |
| 2026-05-05 13:04 | 41.18285 | -75.42953 | 34962 ft | 468 kts | 114° |
| 2026-05-05 13:04 | 41.15845 | -75.34949 | 34957 ft | 467 kts | 114° |
| 2026-05-05 13:05 | 41.13320 | -75.27007 | 34953 ft | 466 kts | 116° |
| 2026-05-05 13:05 | 41.10640 | -75.19190 | 34866 ft | 466 kts | 117° |
| 2026-05-05 13:06 | 41.09296 | -75.15292 | 34610 ft | 465 kts | 115° |
| 2026-05-05 13:06 | 41.08037 | -75.11338 | 34426 ft | 465 kts | 114° |
| 2026-05-05 13:06 | 41.06864 | -75.07349 | 34179 ft | 465 kts | 112° |
| 2026-05-05 13:06 | 41.05739 | -75.03334 | 33934 ft | 465 kts | 112° |
| 2026-05-05 13:07 | 41.04623 | -74.99299 | 33656 ft | 465 kts | 112° |
| 2026-05-05 13:07 | 41.03496 | -74.95269 | 32788 ft | 471 kts | 112° |
| 2026-05-05 13:07 | 41.02335 | -74.91203 | 31893 ft | 474 kts | 113° |
| 2026-05-05 13:07 | 41.01140 | -74.87099 | 30977 ft | 479 kts | 113° |
| 2026-05-05 13:08 | 40.99922 | -74.82971 | 30022 ft | 483 kts | 113° |
| 2026-05-05 13:08 | 40.98693 | -74.78829 | 29055 ft | 484 kts | 113° |
| 2026-05-05 13:08 | 40.97473 | -74.74719 | 28605 ft | 475 kts | 114° |
| 2026-05-05 13:08 | 40.96273 | -74.70668 | 27990 ft | 471 kts | 114° |
| 2026-05-05 13:09 | 40.95086 | -74.66651 | 27380 ft | 467 kts | 114° |
| 2026-05-05 13:09 | 40.93907 | -74.62658 | 26777 ft | 463 kts | 114° |
| 2026-05-05 13:09 | 40.92740 | -74.58714 | 26177 ft | 459 kts | 114° |
| 2026-05-05 13:09 | 40.91582 | -74.54799 | 25589 ft | 456 kts | 114° |
| 2026-05-05 13:10 | 40.90424 | -74.50900 | 24999 ft | 453 kts | 114° |
| 2026-05-05 13:10 | 40.89274 | -74.47038 | 24414 ft | 451 kts | 114° |
| 2026-05-05 13:10 | 40.88129 | -74.43197 | 23843 ft | 449 kts | 114° |
| 2026-05-05 13:10 | 40.86989 | -74.39371 | 23222 ft | 446 kts | 114° |
| 2026-05-05 13:11 | 40.85843 | -74.35541 | 22645 ft | 451 kts | 114° |
| 2026-05-05 13:11 | 40.84701 | -74.31735 | 22098 ft | 453 kts | 114° |
| 2026-05-05 13:11 | 40.83543 | -74.27879 | 21576 ft | 451 kts | 114° |
| 2026-05-05 13:11 | 40.82387 | -74.24030 | 21060 ft | 448 kts | 114° |
| 2026-05-05 13:12 | 40.81245 | -74.20223 | 20535 ft | 445 kts | 114° |
| 2026-05-05 13:12 | 40.80111 | -74.16443 | 19997 ft | 441 kts | 114° |
| 2026-05-05 13:12 | 40.79037 | -74.12870 | 19504 ft | 438 kts | 114° |
| 2026-05-05 13:12 | 40.77911 | -74.09142 | 18960 ft | 435 kts | 114° |
| 2026-05-05 13:13 | 40.76795 | -74.05452 | 18470 ft | 432 kts | 114° |
| 2026-05-05 13:13 | 40.75641 | -74.01809 | 17878 ft | 429 kts | 119° |
| 2026-05-05 13:13 | 40.74110 | -73.98476 | 17354 ft | 420 kts | 130° |
| 2026-05-05 13:13 | 40.72344 | -73.95442 | 16844 ft | 416 kts | 131° |
| 2026-05-05 13:14 | 40.70584 | -73.92431 | 16324 ft | 413 kts | 131° |
| 2026-05-05 13:14 | 40.68842 | -73.89446 | 15811 ft | 410 kts | 131° |
| 2026-05-05 13:14 | 40.67114 | -73.86480 | 15283 ft | 407 kts | 131° |
| 2026-05-05 13:14 | 40.65991 | -73.84502 | 14916 ft | 406 kts | 130° |
| 2026-05-05 13:15 | 40.64066 | -73.80875 | 14241 ft | 405 kts | 128° |
| 2026-05-05 13:15 | 40.62514 | -73.77789 | 13662 ft | 403 kts | 127° |
| 2026-05-05 13:15 | 40.60989 | -73.74696 | 13056 ft | 400 kts | 127° |
| 2026-05-05 13:16 | 40.59485 | -73.71648 | 12502 ft | 395 kts | 128° |
| 2026-05-05 13:16 | 40.58021 | -73.68703 | 12227 ft | 370 kts | 128° |
| 2026-05-05 13:16 | 40.56675 | -73.65930 | 11605 ft | 352 kts | 122° |
| 2026-05-05 13:16 | 40.55898 | -73.62854 | 10960 ft | 362 kts | 100° |
| 2026-05-05 13:17 | 40.56040 | -73.59594 | 10804 ft | 356 kts | 77° |
| 2026-05-05 13:17 | 40.56606 | -73.57599 | 10712 ft | 349 kts | 62° |
| 2026-05-05 13:17 | 40.58064 | -73.55135 | 10587 ft | 335 kts | 39° |
| 2026-05-05 13:17 | 40.60512 | -73.52740 | 10334 ft | 324 kts | 33° |
| 2026-05-05 13:18 | 40.61722 | -73.51594 | 10117 ft | 323 kts | 34° |
| 2026-05-05 13:18 | 40.63551 | -73.49866 | 9709 ft | 326 kts | 33° |
| 2026-05-05 13:18 | 40.65503 | -73.48369 | 9328 ft | 322 kts | 25° |
| 2026-05-05 13:18 | 40.67471 | -73.46974 | 8869 ft | 324 kts | 26° |
| 2026-05-05 13:19 | 40.69443 | -73.45581 | 8660 ft | 316 kts | 25° |
| 2026-05-05 13:19 | 40.71391 | -73.44294 | 8383 ft | 312 kts | 23° |
| 2026-05-05 13:19 | 40.73356 | -73.43142 | 8068 ft | 306 kts | 12° |
| 2026-05-05 13:19 | 40.75426 | -73.42910 | 7661 ft | 297 kts | 347° |
| 2026-05-05 13:20 | 40.77372 | -73.43788 | 6889 ft | 299 kts | 322° |
| 2026-05-05 13:20 | 40.78851 | -73.45609 | 6286 ft | 283 kts | 300° |
| 2026-05-05 13:20 | 40.79862 | -73.47736 | 5876 ft | 265 kts | 297° |
| 2026-05-05 13:20 | 40.80814 | -73.49779 | 5509 ft | 260 kts | 296° |
| 2026-05-05 13:21 | 40.81685 | -73.51825 | 5145 ft | 247 kts | 286° |
| 2026-05-05 13:21 | 40.81997 | -73.53945 | 4826 ft | 226 kts | 266° |
| 2026-05-05 13:21 | 40.81756 | -73.55888 | 4556 ft | 206 kts | 251° |
| 2026-05-05 13:21 | 40.81284 | -73.57650 | 4285 ft | 203 kts | 250° |
| 2026-05-05 13:22 | 40.80823 | -73.59398 | 3969 ft | 200 kts | 250° |
| 2026-05-05 13:22 | 40.80379 | -73.61085 | 3635 ft | 193 kts | 251° |
| 2026-05-05 13:22 | 40.79903 | -73.62716 | 3448 ft | 188 kts | 243° |
| 2026-05-05 13:22 | 40.79060 | -73.64048 | 3276 ft | 192 kts | 223° |
| 2026-05-05 13:23 | 40.77925 | -73.64988 | 3025 ft | 192 kts | 216° |
| 2026-05-05 13:23 | 40.76802 | -73.65860 | 2799 ft | 181 kts | 216° |
| 2026-05-05 13:23 | 40.75743 | -73.66688 | 2579 ft | 174 kts | 217° |
| 2026-05-05 13:23 | 40.74710 | -73.67499 | 2354 ft | 172 kts | 217° |
| 2026-05-05 13:24 | 40.73689 | -73.68301 | 2135 ft | 168 kts | 217° |
| 2026-05-05 13:24 | 40.72713 | -73.69065 | 1910 ft | 158 kts | 217° |
| 2026-05-05 13:24 | 40.71787 | -73.69792 | 1710 ft | 153 kts | 218° |
| 2026-05-05 13:24 | 40.70888 | -73.70498 | 1510 ft | 146 kts | 218° |
| 2026-05-05 13:25 | 40.70041 | -73.71161 | 1313 ft | 140 kts | 216° |
| 2026-05-05 13:25 | 40.69213 | -73.71807 | 1115 ft | 138 kts | 215° |
| 2026-05-05 13:25 | 40.68398 | -73.72447 | 933 ft | 137 kts | 214° |
| 2026-05-05 13:25 | 40.67584 | -73.73090 | 787 ft | 136 kts | 212° |
| 2026-05-05 13:26 | 40.66765 | -73.73726 | 619 ft | 136 kts | 211° |
| 2026-05-05 13:26 | 40.65957 | -73.74365 | 401 ft | 134 kts | 208° |
| 2026-05-05 13:26 | 40.65141 | -73.74995 | 227 ft | 135 kts | 210° |
| 2026-05-05 13:26 | 40.64333 | -73.75638 | 51 ft | 135 kts | 210° |
| 2026-05-05 13:27 | 40.63601 | -73.76206 | 19 ft | 102 kts | 211° |
| 2026-05-05 13:27 | 40.63120 | -73.76577 | 18 ft | 63 kts | 211° |
| 2026-05-05 13:27 | 40.62818 | -73.76820 | 19 ft | 38 kts | 213° |
| 2026-05-05 13:27 | 40.62611 | -73.76981 | 20 ft | 31 kts | 214° |
| 2026-05-05 13:28 | 40.62586 | -73.77183 | 17 ft | 22 kts | 293° |
| 2026-05-05 13:28 | 40.62722 | -73.77256 | 16 ft | 20 kts | 10° |
| 2026-05-05 13:28 | 40.62781 | -73.77217 | 16 ft | 8 kts | 28° |
| 2026-05-05 13:28 | 40.62846 | -73.77169 | 16 ft | 13 kts | 31° |
| 2026-05-05 13:29 | 40.62935 | -73.77094 | 16 ft | 18 kts | 31° |
| 2026-05-05 13:29 | 40.63047 | -73.77009 | 16 ft | 19 kts | 29° |
| 2026-05-05 13:29 | 40.63177 | -73.76951 | 16 ft | 20 kts | 7° |
| 2026-05-05 13:29 | 40.63322 | -73.76947 | 16 ft | 21 kts | 1° |
| 2026-05-05 13:30 | 40.63474 | -73.76927 | 16 ft | 23 kts | 7° |
| 2026-05-05 13:30 | 40.63634 | -73.76919 | 16 ft | 24 kts | 357° |
| 2026-05-05 13:30 | 40.63802 | -73.76913 | 16 ft | 25 kts | 1° |
| 2026-05-05 13:30 | 40.63975 | -73.76912 | 16 ft | 24 kts | 1° |
| 2026-05-05 13:31 | 40.64140 | -73.76896 | 17 ft | 24 kts | 6° |
| 2026-05-05 13:31 | 40.64308 | -73.76900 | 16 ft | 25 kts | 338° |
| 2026-05-05 13:31 | 40.64452 | -73.76986 | 16 ft | 15 kts | 345° |
| 2026-05-05 13:31 | 40.64561 | -73.76984 | 16 ft | 16 kts | 2° |
| 2026-05-05 13:32 | 40.64675 | -73.77000 | 16 ft | 17 kts | 338° |
| 2026-05-05 13:32 | 40.64771 | -73.77089 | 17 ft | 17 kts | 308° |
| 2026-05-05 13:32 | 40.64834 | -73.77227 | 17 ft | 18 kts | 301° |
| 2026-05-05 13:32 | 40.64839 | -73.77313 | 17 ft | 9 kts | 204° |
| 2026-05-05 13:33 | 40.64775 | -73.77353 | 16 ft | 11 kts | 211° |
| 2026-05-05 13:33 | 40.64715 | -73.77353 | 16 ft | 9 kts | 125° |
| 2026-05-05 13:33 | 40.64671 | -73.77294 | 16 ft | 9 kts | 166° |
| 2026-05-05 13:33 | 40.64645 | -73.77301 | 16 ft | 2 kts | 188° |
| 2026-05-05 13:34 | 40.64626 | -73.77304 | 16 ft | 2 kts | 187° |
| 2026-05-05 13:34 | 40.64623 | -73.77304 | 16 ft | 0 kts | 188° |